Venice, Utah
Current Conditions -  °F | °C
As of 5:15 AM on Friday 28 Nov 2014 (Local Time) from KDTA Reporting Station
Clear Clear  
Wind Chill: 37°   Ceiling: Unl
Heat Index: 37°   Visibility: 10mi
Dew Point: 21°   Wind: 3mph
Humidity: 54%   Direction: 150°SSE
Pressure: 30.1"   Gusts: NA
Location:  38.7083°N, 111.729°W
Report Text: KDTA 281215Z AUTO 15003KT 10SM CLR 03/M06 A3010 RMK AO1 T00251060
Loading
Personal Weather Stations






























Interactive Weather Map New forecast layout! Learn more

10-Day Weather Forecast

Advertisements
Track Severe Weather on mobile